Terminal Aerodrome Forecast
Issued by NWS

Current Version | Previous Version | Text Only | Print | Product List | Glossary On
Versions: 1 2 3 4 5 6 7 8 9 10 11 12 13 14 15 16
000
FTUS42 KMLB 201100
TAFLEE
TAF
KLEE 201125Z 2012/2112 04004KT P6SM VCSH SCT008 BKN035
     FM201400 33005KT P6SM VCSH SCT020 BKN050
     FM201800 31006KT P6SM VCTS SCT025CB OVC040
      TEMPO 2018/2021 3SM SHRA BKN025
     FM210000 28005KT P6SM VCSH SCT025 BKN080=

USA.gov is the U.S. government's official web portal to all federal, state and local government web resources and services.